createdAt,value
2023-01-31T00:01:52.764Z,4.50
2023-01-31T00:04:22.036Z,4.50
2023-01-31T00:06:52.090Z,4.50
2023-01-31T00:09:20.553Z,4.50
2023-01-31T00:11:48.544Z,4.50
2023-01-31T00:14:19.702Z,4.50
2023-01-31T00:16:48.205Z,4.50
2023-01-31T00:19:16.173Z,4.50
2023-01-31T00:21:45.884Z,4.50
2023-01-31T00:24:14.234Z,4.50
2023-01-31T00:26:42.316Z,4.50
2023-01-31T00:29:11.200Z,4.40
2023-01-31T00:31:40.030Z,4.40
2023-01-31T00:34:08.484Z,4.50
2023-01-31T00:36:37.677Z,4.50
2023-01-31T00:39:08.815Z,4.40
2023-01-31T00:41:38.604Z,4.40
2023-01-31T00:44:07.585Z,4.40
2023-01-31T00:46:36.497Z,4.50
2023-01-31T00:49:04.916Z,4.40
2023-01-31T00:51:32.903Z,4.40
2023-01-31T00:54:00.926Z,4.40
2023-01-31T00:56:30.226Z,4.40
2023-01-31T00:58:58.188Z,4.30
2023-01-31T01:01:28.101Z,4.30
2023-01-31T01:03:57.419Z,4.30
2023-01-31T01:06:26.194Z,4.40
2023-01-31T01:08:54.793Z,4.40
2023-01-31T01:11:28.642Z,4.30
2023-01-31T01:13:58.772Z,4.30
2023-01-31T01:16:29.375Z,4.30
2023-01-31T01:18:57.364Z,4.30
2023-01-31T01:21:26.820Z,4.30
2023-01-31T01:23:57.104Z,4.30
2023-01-31T01:26:27.837Z,4.30
2023-01-31T01:28:58.367Z,4.30
2023-01-31T01:31:30.592Z,4.30
2023-01-31T01:34:00.283Z,4.40
2023-01-31T01:36:29.233Z,4.40
2023-01-31T01:38:57.447Z,4.40
2023-01-31T01:41:25.468Z,4.30
2023-01-31T01:43:55.196Z,4.30
2023-01-31T01:46:30.491Z,4.30
2023-01-31T01:49:02.227Z,4.30
2023-01-31T01:51:33.290Z,4.30
2023-01-31T01:54:06.849Z,4.30
2023-01-31T01:56:39.221Z,4.30
2023-01-31T01:59:10.756Z,4.30
2023-01-31T02:01:40.870Z,4.30
2023-01-31T02:04:15.106Z,4.30
2023-01-31T02:06:43.291Z,4.30
2023-01-31T02:09:17.452Z,4.20
2023-01-31T02:11:45.517Z,4.10
2023-01-31T02:14:13.835Z,4.20
2023-01-31T02:16:43.130Z,4.20
2023-01-31T02:19:19.445Z,4.20
2023-01-31T02:22:15.533Z,4.30
2023-01-31T02:25:16.974Z,4.30
2023-01-31T02:28:17.654Z,4.30
2023-01-31T02:31:17.616Z,4.30
2023-01-31T02:33:53.122Z,4.30
2023-01-31T02:36:30.992Z,4.30
2023-01-31T02:39:08.373Z,4.20
2023-01-31T02:41:44.168Z,4.30
2023-01-31T02:44:39.477Z,4.30
2023-01-31T02:47:15.446Z,4.30
2023-01-31T02:49:51.686Z,4.30
2023-01-31T02:52:26.316Z,4.30
2023-01-31T02:55:19.509Z,4.30
2023-01-31T02:57:50.348Z,4.20
2023-01-31T03:00:20.026Z,4.20
2023-01-31T03:02:48.067Z,4.10
2023-01-31T03:05:19.819Z,4.20
2023-01-31T03:07:51.198Z,4.20
2023-01-31T03:10:37.124Z,4.20
2023-01-31T03:13:24.093Z,4.10
2023-01-31T03:16:21.306Z,4.10
2023-01-31T03:19:00.161Z,4.10
2023-01-31T03:21:35.595Z,4.10
2023-01-31T03:24:05.665Z,4.20
2023-01-31T03:26:34.702Z,4.20
2023-01-31T03:29:04.360Z,4.20
2023-01-31T03:31:38.386Z,4.20
2023-01-31T03:34:09.561Z,4.20
2023-01-31T03:36:42.482Z,4.20
2023-01-31T03:39:17.713Z,4.20
2023-01-31T03:41:56.477Z,4.20
2023-01-31T03:44:32.484Z,4.10
2023-01-31T03:47:05.838Z,4.00
2023-01-31T03:49:35.952Z,3.90
2023-01-31T03:52:08.824Z,3.80
2023-01-31T03:54:42.488Z,3.70
2023-01-31T03:57:18.675Z,3.70
2023-01-31T03:59:53.897Z,3.60
2023-01-31T04:02:24.613Z,3.60
2023-01-31T04:04:56.911Z,3.50
2023-01-31T04:07:26.512Z,3.50
2023-01-31T04:09:54.457Z,3.60
2023-01-31T04:12:22.475Z,3.60
2023-01-31T04:14:50.412Z,3.60
2023-01-31T04:17:18.361Z,3.60
2023-01-31T04:19:46.397Z,3.70
2023-01-31T04:22:14.357Z,3.70
2023-01-31T04:24:43.655Z,3.70
2023-01-31T04:27:11.632Z,3.70
2023-01-31T04:29:39.575Z,3.70
2023-01-31T04:32:07.598Z,3.70
2023-01-31T04:34:35.577Z,3.70
2023-01-31T04:37:03.551Z,3.60
2023-01-31T04:39:31.885Z,3.60
2023-01-31T04:42:01.442Z,3.60
2023-01-31T04:44:29.688Z,3.60
2023-01-31T04:46:57.710Z,3.70
2023-01-31T04:49:25.654Z,3.70
2023-01-31T04:51:53.627Z,3.70
2023-01-31T04:54:21.603Z,3.70
2023-01-31T04:56:49.541Z,3.60
2023-01-31T04:59:18.873Z,3.60
2023-01-31T05:01:46.807Z,3.60
2023-01-31T05:04:14.798Z,3.60
2023-01-31T05:06:42.715Z,3.60
2023-01-31T05:09:11.482Z,3.60
2023-01-31T05:11:39.438Z,3.70
2023-01-31T05:14:08.223Z,3.70
2023-01-31T05:16:37.615Z,3.70
2023-01-31T05:19:05.582Z,3.70
2023-01-31T05:21:54.017Z,3.70
2023-01-31T05:24:22.066Z,3.70
2023-01-31T05:26:51.622Z,3.60
2023-01-31T05:29:20.408Z,3.60
2023-01-31T05:31:52.008Z,3.60
2023-01-31T05:34:20.041Z,3.50
2023-01-31T05:36:48.345Z,3.50
2023-01-31T05:39:16.353Z,3.40
2023-01-31T05:41:44.458Z,3.40
2023-01-31T05:44:12.728Z,3.40
2023-01-31T05:46:40.881Z,3.30
2023-01-31T05:49:10.415Z,3.40
2023-01-31T05:51:38.410Z,3.40
2023-01-31T05:54:07.027Z,3.40
2023-01-31T05:56:35.474Z,3.30
2023-01-31T05:59:03.735Z,3.20
2023-01-31T06:01:32.150Z,3.10
2023-01-31T06:04:00.689Z,3.10
2023-01-31T06:06:30.105Z,3.00
2023-01-31T06:08:58.065Z,3.00
2023-01-31T06:11:26.287Z,2.90
2023-01-31T06:13:57.604Z,2.90
2023-01-31T06:16:25.701Z,2.90
2023-01-31T06:18:55.574Z,2.90
2023-01-31T06:21:23.609Z,2.90
2023-01-31T06:23:53.075Z,2.80
2023-01-31T06:26:21.035Z,2.80
2023-01-31T06:28:49.036Z,2.90
2023-01-31T06:31:17.071Z,2.90
2023-01-31T06:33:47.798Z,3.00
2023-01-31T06:36:18.844Z,3.00
2023-01-31T06:38:51.991Z,3.00
2023-01-31T06:41:20.612Z,3.00
2023-01-31T06:43:48.566Z,3.00
2023-01-31T06:46:16.596Z,3.00
2023-01-31T06:48:44.748Z,3.00
2023-01-31T06:51:12.737Z,3.00
2023-01-31T06:53:40.680Z,3.00
2023-01-31T06:56:10.468Z,3.10
2023-01-31T06:58:38.401Z,3.10
2023-01-31T07:01:07.744Z,3.10
2023-01-31T07:03:35.818Z,3.10
2023-01-31T07:06:04.203Z,3.10
2023-01-31T07:08:35.285Z,3.20
2023-01-31T07:11:04.433Z,3.10
2023-01-31T07:13:33.750Z,3.20
2023-01-31T07:16:01.770Z,3.20
2023-01-31T07:18:30.187Z,3.20
2023-01-31T07:20:58.265Z,3.20
2023-01-31T07:23:26.256Z,3.20
2023-01-31T07:25:54.221Z,3.20
2023-01-31T07:28:22.175Z,3.20
2023-01-31T07:30:51.956Z,3.20
2023-01-31T07:33:20.715Z,3.20
2023-01-31T07:35:48.686Z,3.20
2023-01-31T07:38:16.634Z,3.30
2023-01-31T07:40:44.602Z,3.30
2023-01-31T07:43:12.552Z,3.30
2023-01-31T07:45:42.826Z,3.30
2023-01-31T07:48:12.219Z,3.30
2023-01-31T07:50:40.146Z,3.30
2023-01-31T07:53:08.117Z,3.30
2023-01-31T07:55:36.049Z,3.30
2023-01-31T07:58:04.030Z,3.40
2023-01-31T08:00:58.061Z,3.30
2023-01-31T08:03:37.135Z,3.40
2023-01-31T08:06:09.879Z,3.40
2023-01-31T08:08:38.574Z,3.40
2023-01-31T08:11:06.841Z,3.40
2023-01-31T08:13:35.411Z,3.40
2023-01-31T08:16:03.684Z,3.40
2023-01-31T08:18:33.177Z,3.50
2023-01-31T08:21:01.285Z,3.40
2023-01-31T08:23:30.630Z,3.50
2023-01-31T08:26:03.026Z,3.50
2023-01-31T08:28:31.905Z,3.40
2023-01-31T08:31:08.586Z,3.40
2023-01-31T08:33:39.246Z,3.40
2023-01-31T08:36:10.599Z,3.40
2023-01-31T08:38:38.823Z,3.50
2023-01-31T08:41:06.874Z,3.40
2023-01-31T08:43:45.652Z,3.40
2023-01-31T08:46:22.058Z,3.40
2023-01-31T08:48:51.391Z,3.50
2023-01-31T08:51:19.371Z,3.60
2023-01-31T08:53:47.634Z,3.60
2023-01-31T08:56:16.408Z,3.70
2023-01-31T08:58:45.614Z,3.70
2023-01-31T09:01:15.618Z,3.80
2023-01-31T09:03:45.416Z,3.80
2023-01-31T09:06:17.626Z,3.80
2023-01-31T09:08:46.123Z,3.90
2023-01-31T09:11:17.231Z,3.90
2023-01-31T09:13:45.638Z,3.90
2023-01-31T09:16:15.021Z,3.80
2023-01-31T09:18:43.624Z,3.70
2023-01-31T09:21:16.048Z,3.70
2023-01-31T09:23:44.320Z,3.60
2023-01-31T09:26:13.529Z,3.70
2023-01-31T09:28:42.868Z,3.60
2023-01-31T09:31:12.931Z,3.60
2023-01-31T09:33:41.562Z,3.70
2023-01-31T09:36:11.932Z,3.70
2023-01-31T09:38:41.332Z,3.70
2023-01-31T09:41:19.302Z,3.70
2023-01-31T09:43:51.883Z,3.70
2023-01-31T09:46:22.322Z,3.70
2023-01-31T09:48:54.111Z,3.70
2023-01-31T09:51:22.447Z,3.70
2023-01-31T09:53:51.957Z,3.70
2023-01-31T09:56:31.964Z,3.70
2023-01-31T09:59:08.170Z,3.80
2023-01-31T10:01:43.807Z,3.80
2023-01-31T10:04:26.256Z,3.90
2023-01-31T10:06:59.809Z,3.90
2023-01-31T10:09:34.966Z,4.00
2023-01-31T10:12:10.254Z,3.90
2023-01-31T10:14:43.182Z,3.90
2023-01-31T10:17:17.708Z,4.00
2023-01-31T10:19:52.427Z,4.10
2023-01-31T10:22:27.089Z,4.30
2023-01-31T10:25:00.763Z,4.40
2023-01-31T10:27:41.928Z,4.50
2023-01-31T10:30:18.440Z,4.50
2023-01-31T10:32:52.579Z,4.50
2023-01-31T10:35:25.829Z,4.50
2023-01-31T10:37:58.684Z,4.50
2023-01-31T10:40:36.733Z,4.60
2023-01-31T10:43:15.228Z,4.60
2023-01-31T10:45:43.273Z,4.60
2023-01-31T10:48:17.778Z,4.70
2023-01-31T10:50:58.279Z,4.70
2023-01-31T10:53:51.057Z,4.80
2023-01-31T10:56:27.592Z,4.70
2023-01-31T10:58:56.697Z,4.70
2023-01-31T11:01:25.056Z,4.80
2023-01-31T11:03:57.992Z,4.90
2023-01-31T11:06:26.177Z,4.80
2023-01-31T11:08:57.722Z,4.90
2023-01-31T11:11:29.441Z,4.80
2023-01-31T11:14:00.291Z,4.60
2023-01-31T11:16:31.104Z,4.50
2023-01-31T11:19:00.813Z,4.50
2023-01-31T11:21:32.149Z,4.50
2023-01-31T11:24:04.841Z,4.50
2023-01-31T11:26:37.798Z,4.40
2023-01-31T11:29:17.728Z,4.50
2023-01-31T11:31:47.683Z,4.40
2023-01-31T11:34:24.307Z,4.50
2023-01-31T11:36:52.801Z,4.50
2023-01-31T11:39:29.448Z,4.50
2023-01-31T11:41:59.482Z,4.40
2023-01-31T11:44:27.552Z,4.50
2023-01-31T11:46:57.869Z,4.50
2023-01-31T11:49:32.210Z,4.60
2023-01-31T11:52:03.593Z,4.70
2023-01-31T11:54:34.717Z,4.70
2023-01-31T11:57:14.578Z,4.80
2023-01-31T11:59:42.891Z,4.90
2023-01-31T12:02:29.100Z,4.90
2023-01-31T12:04:57.539Z,5.00
2023-01-31T12:07:29.086Z,5.10
2023-01-31T12:09:57.361Z,5.20
2023-01-31T12:12:31.285Z,5.30
2023-01-31T12:15:03.567Z,5.30
2023-01-31T12:17:35.444Z,5.40
2023-01-31T12:20:28.431Z,5.40
2023-01-31T12:23:08.557Z,5.30
2023-01-31T12:25:49.831Z,5.40
2023-01-31T12:28:32.406Z,5.30
2023-01-31T12:31:33.041Z,5.30
2023-01-31T12:34:26.020Z,5.30
2023-01-31T12:37:08.973Z,5.20
2023-01-31T12:39:54.939Z,5.20
2023-01-31T12:42:48.636Z,5.20
2023-01-31T12:45:40.265Z,5.20
2023-01-31T12:48:41.353Z,5.20
2023-01-31T12:51:20.765Z,5.20
2023-01-31T12:53:56.925Z,5.10
2023-01-31T12:56:40.390Z,5.10
2023-01-31T12:59:27.492Z,5.10
2023-01-31T13:02:03.674Z,5.10
2023-01-31T13:04:43.796Z,5.20
2023-01-31T13:07:18.009Z,5.20
2023-01-31T13:09:49.674Z,5.20
2023-01-31T13:12:21.423Z,5.20
2023-01-31T13:15:03.969Z,5.20
2023-01-31T13:17:35.787Z,5.10
2023-01-31T13:20:09.154Z,5.10
2023-01-31T13:22:46.413Z,5.10
2023-01-31T13:25:19.760Z,5.00
2023-01-31T13:27:55.814Z,5.10
2023-01-31T13:30:29.738Z,5.00
2023-01-31T13:33:00.886Z,5.00
2023-01-31T13:35:34.395Z,4.90
2023-01-31T13:38:08.290Z,4.70
2023-01-31T13:40:41.667Z,4.70
2023-01-31T13:43:14.839Z,4.80
2023-01-31T13:45:46.082Z,4.80
2023-01-31T13:48:26.892Z,4.80
2023-01-31T13:50:59.649Z,4.80
2023-01-31T13:53:31.510Z,4.70
2023-01-31T13:56:01.989Z,4.70
2023-01-31T13:58:34.328Z,4.70
2023-01-31T14:01:07.221Z,4.70
2023-01-31T14:04:22.507Z,4.60
2023-01-31T14:07:21.231Z,4.60
2023-01-31T14:10:32.653Z,4.60
2023-01-31T14:13:27.196Z,4.70
2023-01-31T14:15:57.137Z,4.70
2023-01-31T14:18:39.357Z,4.60
2023-01-31T14:21:52.768Z,4.70
2023-01-31T14:24:37.305Z,4.70
2023-01-31T14:27:14.504Z,4.70
2023-01-31T14:29:45.137Z,4.70
2023-01-31T14:32:17.899Z,4.60
2023-01-31T14:34:50.027Z,4.60
2023-01-31T14:37:33.557Z,4.50
2023-01-31T14:40:23.419Z,4.60
2023-01-31T14:43:31.793Z,4.50
2023-01-31T14:46:21.038Z,4.60
2023-01-31T14:49:22.931Z,4.60
2023-01-31T14:52:19.537Z,4.60
2023-01-31T14:55:02.909Z,4.60
2023-01-31T14:57:34.644Z,4.60
2023-01-31T15:00:06.151Z,4.60
2023-01-31T15:03:00.535Z,4.60
2023-01-31T15:05:42.590Z,4.60
2023-01-31T15:08:38.059Z,4.60
2023-01-31T15:11:12.965Z,4.60
2023-01-31T15:13:50.197Z,4.60
2023-01-31T15:16:27.404Z,4.70
2023-01-31T15:19:01.603Z,4.60
2023-01-31T15:21:33.522Z,4.60
2023-01-31T15:24:02.631Z,4.60
2023-01-31T15:26:35.607Z,4.60
2023-01-31T15:29:05.700Z,4.60
2023-01-31T15:31:37.732Z,4.60
2023-01-31T15:34:16.063Z,4.60
2023-01-31T15:36:47.164Z,4.60
2023-01-31T15:39:23.319Z,4.70
2023-01-31T15:41:52.952Z,4.70
2023-01-31T15:44:23.446Z,4.70
2023-01-31T15:46:52.601Z,4.60
2023-01-31T15:49:39.196Z,4.60
2023-01-31T15:52:14.706Z,4.60
2023-01-31T15:54:54.769Z,4.60
2023-01-31T15:57:26.244Z,4.60
2023-01-31T15:59:54.991Z,4.70
2023-01-31T16:02:28.314Z,4.70
2023-01-31T16:04:56.856Z,4.70
2023-01-31T16:07:29.322Z,4.70
2023-01-31T16:09:59.080Z,4.70
2023-01-31T16:12:30.890Z,4.70
2023-01-31T16:15:03.124Z,4.80
2023-01-31T16:17:31.680Z,4.80
2023-01-31T16:19:59.722Z,4.80
2023-01-31T16:22:29.833Z,4.80
2023-01-31T16:24:59.906Z,4.80
2023-01-31T16:27:32.051Z,4.80
2023-01-31T16:30:01.592Z,4.80
2023-01-31T16:32:32.474Z,4.80
2023-01-31T16:35:02.385Z,4.70
2023-01-31T16:37:36.514Z,4.70
2023-01-31T16:40:11.775Z,4.70
2023-01-31T16:42:41.207Z,4.70
2023-01-31T16:45:30.412Z,4.80
2023-01-31T16:48:20.398Z,4.80
2023-01-31T16:50:48.713Z,4.80
2023-01-31T16:53:29.695Z,4.70
2023-01-31T16:56:21.008Z,4.80
2023-01-31T16:58:56.295Z,4.70
2023-01-31T17:01:27.665Z,4.70
2023-01-31T17:04:05.639Z,4.70
2023-01-31T17:06:34.746Z,4.70
2023-01-31T17:09:05.429Z,4.70
2023-01-31T17:11:42.519Z,4.70
2023-01-31T17:14:12.670Z,4.70
2023-01-31T17:16:40.903Z,4.80
2023-01-31T17:19:08.913Z,4.70
2023-01-31T17:21:41.304Z,4.70
2023-01-31T17:24:13.518Z,4.70
2023-01-31T17:26:41.770Z,4.70
2023-01-31T17:29:09.867Z,4.70
2023-01-31T17:31:39.626Z,4.60
2023-01-31T17:34:13.825Z,4.60
2023-01-31T17:36:41.929Z,4.60
2023-01-31T17:39:10.284Z,4.70
2023-01-31T17:41:41.144Z,4.80
2023-01-31T17:44:13.834Z,4.80
2023-01-31T17:46:44.262Z,4.80
2023-01-31T17:49:12.637Z,4.80
2023-01-31T17:51:41.083Z,4.90
2023-01-31T17:54:10.196Z,4.90
2023-01-31T17:56:38.493Z,4.80
2023-01-31T17:59:08.313Z,4.80
2023-01-31T18:01:36.556Z,4.70
2023-01-31T18:04:06.240Z,4.70
2023-01-31T18:06:34.485Z,4.70
2023-01-31T18:09:04.209Z,4.90
2023-01-31T18:11:32.454Z,4.90
2023-01-31T18:14:00.567Z,4.90
2023-01-31T18:16:28.711Z,5.00
2023-01-31T18:18:56.720Z,5.00
2023-01-31T18:21:26.355Z,5.10
2023-01-31T18:23:56.211Z,5.10
2023-01-31T18:26:25.833Z,5.10
2023-01-31T18:28:56.109Z,5.10
2023-01-31T18:31:24.684Z,5.20
2023-01-31T18:33:52.852Z,5.20
2023-01-31T18:36:22.868Z,5.20
2023-01-31T18:38:52.306Z,5.20
2023-01-31T18:41:21.641Z,5.30
2023-01-31T18:43:49.779Z,5.20
2023-01-31T18:46:18.327Z,5.30
2023-01-31T18:48:46.420Z,5.20
2023-01-31T18:51:16.148Z,5.20
2023-01-31T18:53:45.670Z,5.20
2023-01-31T18:56:17.148Z,5.10
2023-01-31T18:58:48.029Z,5.10
2023-01-31T19:01:17.685Z,5.10
2023-01-31T19:03:47.607Z,5.10
2023-01-31T19:06:18.106Z,5.10
2023-01-31T19:08:49.710Z,5.10
2023-01-31T19:11:20.579Z,5.10
2023-01-31T19:13:48.773Z,5.20
2023-01-31T19:16:18.379Z,5.20
2023-01-31T19:18:48.101Z,5.20
2023-01-31T19:21:17.499Z,5.30
2023-01-31T19:23:45.969Z,5.30
2023-01-31T19:26:15.784Z,5.40
2023-01-31T19:28:45.887Z,5.30
2023-01-31T19:31:17.120Z,5.30
2023-01-31T19:33:50.134Z,5.30
2023-01-31T19:36:20.018Z,5.10
2023-01-31T19:38:48.237Z,5.10
2023-01-31T19:41:18.986Z,4.90
2023-01-31T19:43:50.008Z,4.80
2023-01-31T19:46:18.700Z,4.80
2023-01-31T19:48:47.222Z,4.70
2023-01-31T19:51:16.694Z,4.70
2023-01-31T19:53:47.722Z,4.60
2023-01-31T19:56:16.453Z,4.60
2023-01-31T19:58:44.828Z,4.60
2023-01-31T20:01:16.519Z,4.70
2023-01-31T20:03:45.245Z,4.70
2023-01-31T20:06:15.342Z,4.80
2023-01-31T20:08:43.963Z,4.90
2023-01-31T20:11:12.332Z,4.90
2023-01-31T20:13:41.613Z,5.00
2023-01-31T20:16:11.333Z,5.00
2023-01-31T20:18:42.293Z,5.00
2023-01-31T20:21:13.832Z,5.10
2023-01-31T20:23:41.951Z,5.10
2023-01-31T20:26:12.195Z,5.20
2023-01-31T20:28:40.245Z,5.20
2023-01-31T20:31:09.848Z,5.20
2023-01-31T20:33:38.675Z,5.20
2023-01-31T20:36:09.118Z,5.20
2023-01-31T20:38:38.659Z,5.20
2023-01-31T20:41:08.531Z,5.20
2023-01-31T20:43:37.598Z,5.20
2023-01-31T20:46:07.007Z,5.10
2023-01-31T20:48:35.170Z,5.00
2023-01-31T20:51:03.181Z,4.80
2023-01-31T20:53:32.945Z,4.70
2023-01-31T20:56:02.993Z,4.60
2023-01-31T20:58:33.350Z,4.60
2023-01-31T21:01:04.205Z,4.50
2023-01-31T21:03:34.000Z,4.50
2023-01-31T21:06:02.313Z,4.40
2023-01-31T21:08:32.516Z,4.40
2023-01-31T21:11:04.484Z,4.40
2023-01-31T21:13:33.040Z,4.40
2023-01-31T21:16:03.459Z,4.40
2023-01-31T21:18:33.275Z,4.40
2023-01-31T21:21:06.845Z,4.40
2023-01-31T21:23:36.558Z,4.40
2023-01-31T21:26:05.609Z,4.30
2023-01-31T21:28:34.036Z,4.30
2023-01-31T21:31:03.664Z,4.30
2023-01-31T21:33:32.291Z,4.30
2023-01-31T21:36:00.770Z,4.20
2023-01-31T21:38:29.098Z,4.10
2023-01-31T21:41:15.846Z,4.10
2023-01-31T21:43:43.836Z,4.10
2023-01-31T21:46:12.735Z,4.10
2023-01-31T21:48:40.942Z,4.00
2023-01-31T21:51:11.381Z,4.00
2023-01-31T21:53:41.144Z,4.00
2023-01-31T21:56:12.449Z,3.90
2023-01-31T21:58:41.528Z,3.90
2023-01-31T22:01:11.308Z,3.90
2023-01-31T22:03:42.537Z,3.80
2023-01-31T22:06:12.408Z,3.80
2023-01-31T22:08:40.740Z,3.70
2023-01-31T22:11:12.469Z,3.70
2023-01-31T22:13:41.276Z,3.70
2023-01-31T22:16:10.914Z,3.70
2023-01-31T22:18:39.979Z,3.70
2023-01-31T22:21:09.856Z,3.70
2023-01-31T22:23:39.642Z,3.70
2023-01-31T22:26:09.891Z,3.70
2023-01-31T22:28:40.276Z,3.70
2023-01-31T22:31:10.332Z,3.70
2023-01-31T22:33:40.978Z,3.60
2023-01-31T22:36:11.093Z,3.60
2023-01-31T22:38:39.637Z,3.60
2023-01-31T22:41:09.741Z,3.60
2023-01-31T22:43:40.070Z,3.60
2023-01-31T22:46:09.100Z,3.60
2023-01-31T22:48:37.351Z,3.60
2023-01-31T22:51:07.804Z,3.60
2023-01-31T22:53:38.091Z,3.70
2023-01-31T22:56:08.419Z,3.60
2023-01-31T22:58:36.449Z,3.60
2023-01-31T23:01:12.712Z,3.60
2023-01-31T23:03:40.793Z,3.50
2023-01-31T23:06:09.161Z,3.50
2023-01-31T23:08:37.272Z,3.50
2023-01-31T23:11:06.657Z,3.50
2023-01-31T23:13:36.055Z,3.40
2023-01-31T23:16:07.249Z,3.40
2023-01-31T23:18:35.947Z,3.40
2023-01-31T23:21:08.180Z,3.40
2023-01-31T23:23:36.413Z,3.40
2023-01-31T23:26:04.662Z,3.30
2023-01-31T23:28:32.861Z,3.30
2023-01-31T23:31:01.039Z,3.30
2023-01-31T23:33:30.728Z,3.40
2023-01-31T23:35:58.820Z,3.40
2023-01-31T23:38:26.897Z,3.30
2023-01-31T23:40:55.776Z,3.40
2023-01-31T23:43:24.124Z,3.40
2023-01-31T23:45:52.389Z,3.40
2023-01-31T23:48:21.144Z,3.40
2023-01-31T23:50:50.532Z,3.40
2023-01-31T23:53:18.571Z,3.40
2023-01-31T23:55:46.590Z,3.50
2023-01-31T23:58:14.606Z,3.50
